Time;durP1;ratioP1;P1;durP2;ratioP2;P2;SDS_P1;SDS_P2;PMS_P1;PMS_P2;Temp;Humidity;BMP_temperature;BMP_pressure;BME280_temperature;BME280_humidity;BME280_pressure;Samples;Min_cycle;Max_cycle;Signal;HPM_P1;HPM_P2
2021/09/10 00:02:21;;;;;;;9.70;7.63;;;20.30;99.90;;;;;;5076370;28;20443;-70
2021/09/10 00:04:49;;;;;;;11.90;7.93;;;20.30;99.90;;;;;;5076241;28;20531;-71
2021/09/10 00:07:17;;;;;;;8.40;7.53;;;20.20;99.90;;;;;;5076379;28;20539;-70
2021/09/10 00:09:44;;;;;;;9.00;7.37;;;20.20;99.90;;;;;;5076445;28;20443;-70
2021/09/10 00:12:11;;;;;;;8.90;7.30;;;20.30;99.90;;;;;;5076365;28;20443;-70
2021/09/10 00:14:37;;;;;;;8.80;7.70;;;20.40;99.90;;;;;;5076245;28;20474;-70
2021/09/10 00:17:04;;;;;;;8.10;7.30;;;20.40;99.90;;;;;;5076039;28;20567;-70
2021/09/10 00:19:31;;;;;;;8.50;7.63;;;20.30;99.90;;;;;;5076203;28;20440;-70
2021/09/10 00:21:58;;;;;;;7.90;7.10;;;20.30;99.90;;;;;;5076186;28;20775;-70
2021/09/10 00:24:26;;;;;;;8.77;7.30;;;20.40;99.90;;;;;;5075936;28;20534;-70
2021/09/10 00:26:53;;;;;;;10.40;7.77;;;20.40;99.90;;;;;;5075883;28;20458;-70
2021/09/10 00:29:20;;;;;;;9.33;7.07;;;20.40;99.90;;;;;;5075915;28;20448;-70
2021/09/10 00:31:47;;;;;;;8.20;7.37;;;20.40;99.90;;;;;;5075996;28;20537;-70
2021/09/10 00:34:14;;;;;;;8.80;7.57;;;20.40;99.90;;;;;;5075838;28;20447;-70
2021/09/10 00:36:44;;;;;;;8.00;7.20;;;20.20;99.90;;;;;;5075666;28;20824;-70
2021/09/10 00:39:11;;;;;;;7.60;6.90;;;20.30;99.90;;;;;;5075889;28;20444;-70
2021/09/10 00:41:39;;;;;;;8.47;7.57;;;20.30;99.90;;;;;;5075697;28;20450;-70
2021/09/10 00:44:06;;;;;;;7.43;6.63;;;20.40;99.90;;;;;;5075543;28;20458;-70
2021/09/10 00:46:34;;;;;;;8.70;7.17;;;20.40;99.90;;;;;;5075321;28;20496;-70
2021/09/10 00:49:01;;;;;;;7.67;6.40;;;20.30;99.90;;;;;;5075404;28;20535;-70
2021/09/10 00:51:28;;;;;;;8.37;7.47;;;20.40;99.90;;;;;;5075432;28;21002;-70
2021/09/10 00:53:55;;;;;;;7.60;6.80;;;20.30;99.90;;;;;;5075053;28;20816;-71
2021/09/10 00:56:22;;;;;;;9.27;7.63;;;20.30;99.90;;;;;;5075276;28;20501;-70
2021/09/10 00:58:50;;;;;;;7.70;6.83;;;20.20;99.90;;;;;;5075555;28;20439;-70
2021/09/10 01:01:17;;;;;;;8.80;7.50;;;20.00;99.90;;;;;;5075399;28;20453;-71
2021/09/10 01:03:43;;;;;;;8.17;7.20;;;19.90;99.90;;;;;;5075351;28;20446;-70
2021/09/10 01:06:12;;;;;;;9.10;7.37;;;19.80;99.90;;;;;;5074903;28;20545;-70
2021/09/10 01:08:40;;;;;;;9.50;7.40;;;19.70;99.90;;;;;;5075310;28;20446;-70
2021/09/10 01:11:07;;;;;;;9.43;7.53;;;19.60;99.90;;;;;;5075292;28;20449;-71
2021/09/10 01:13:36;;;;;;;8.20;7.20;;;19.60;99.90;;;;;;5075224;28;20446;-70
2021/09/10 01:16:05;;;;;;;9.13;7.03;;;19.70;99.90;;;;;;5074660;28;20573;-70
2021/09/10 01:18:32;;;;;;;16.40;7.57;;;19.80;99.90;;;;;;5075109;28;20473;-70
2021/09/10 01:20:58;;;;;;;9.83;7.77;;;19.80;99.90;;;;;;5074908;28;21010;-70
2021/09/10 01:23:25;;;;;;;8.47;7.60;;;19.90;99.90;;;;;;5075021;28;20440;-70
2021/09/10 01:25:53;;;;;;;8.57;7.67;;;20.00;99.90;;;;;;5074592;28;20559;-70
2021/09/10 01:28:20;;;;;;;8.57;7.40;;;20.10;99.90;;;;;;5074886;28;20810;-70
2021/09/10 01:30:47;;;;;;;8.83;7.83;;;20.20;99.90;;;;;;5075009;28;20443;-70
2021/09/10 01:33:14;;;;;;;9.00;7.40;;;20.20;99.90;;;;;;5074725;28;20442;-70
2021/09/10 01:35:41;;;;;;;9.37;7.90;;;20.30;99.90;;;;;;5074308;28;20526;-70
2021/09/10 01:38:10;;;;;;;9.43;7.80;;;20.20;99.90;;;;;;5074713;28;20439;-70
2021/09/10 01:40:37;;;;;;;9.57;8.03;;;19.90;99.90;;;;;;5074593;28;20932;-70
2021/09/10 01:43:07;;;;;;;9.20;7.67;;;19.70;99.90;;;;;;5074391;28;21015;-71
2021/09/10 01:45:34;;;;;;;7.90;6.67;;;19.60;99.90;;;;;;5074376;28;20468;-70
2021/09/10 01:48:01;;;;;;;8.17;7.37;;;19.70;99.90;;;;;;5074504;28;20450;-70
2021/09/10 01:50:28;;;;;;;8.97;8.00;;;19.80;99.90;;;;;;5074495;28;20870;-70
2021/09/10 01:52:55;;;;;;;8.67;7.57;;;19.80;99.90;;;;;;5074396;28;20444;-70
2021/09/10 01:55:22;;;;;;;9.00;7.23;;;19.90;99.90;;;;;;5073973;28;20462;-70
2021/09/10 01:57:51;;;;;;;8.40;7.60;;;20.00;99.90;;;;;;5074070;28;21033;-70
2021/09/10 02:00:20;;;;;;;8.83;7.80;;;20.00;99.90;;;;;;5074274;28;20461;-70
2021/09/10 02:02:48;;;;;;;8.70;7.20;;;20.00;99.90;;;;;;5074250;28;20449;-70
2021/09/10 02:05:15;;;;;;;8.90;7.57;;;20.10;99.90;;;;;;5073545;28;20467;-70
2021/09/10 02:07:41;;;;;;;9.07;8.07;;;20.10;99.90;;;;;;5073801;28;20469;-70
2021/09/10 02:10:11;;;;;;;8.43;7.43;;;19.90;99.90;;;;;;5074016;28;20537;-71
2021/09/10 02:12:39;;;;;;;9.80;7.67;;;20.00;99.90;;;;;;5073841;28;20938;-70
2021/09/10 02:15:07;;;;;;;8.87;7.70;;;19.80;99.90;;;;;;5073784;28;20463;-70
2021/09/10 02:17:35;;;;;;;8.60;7.70;;;19.90;99.90;;;;;;5073911;28;20484;-70
2021/09/10 02:20:02;;;;;;;8.53;7.40;;;19.90;99.90;;;;;;5073849;28;20452;-70
2021/09/10 02:22:29;;;;;;;8.30;7.07;;;19.90;99.90;;;;;;5073874;28;20469;-70
2021/09/10 02:24:55;;;;;;;8.87;7.97;;;20.00;99.90;;;;;;5073350;28;20557;-70
2021/09/10 02:27:22;;;;;;;8.67;7.07;;;20.00;99.90;;;;;;5073864;28;20525;-70
2021/09/10 02:29:49;;;;;;;8.60;7.80;;;20.00;99.90;;;;;;5073681;28;20451;-70
2021/09/10 02:32:16;;;;;;;9.10;7.40;;;20.00;99.90;;;;;;5073806;28;20449;-70
2021/09/10 02:34:44;;;;;;;8.20;7.23;;;20.00;99.90;;;;;;5074022;28;20448;-69
2021/09/10 02:37:12;;;;;;;8.60;7.70;;;19.90;99.90;;;;;;5073559;28;20566;-70
2021/09/10 02:39:39;;;;;;;8.33;7.50;;;19.90;99.90;;;;;;5073689;28;20442;-70
2021/09/10 02:42:06;;;;;;;8.03;7.23;;;19.90;99.90;;;;;;5073592;28;20831;-70
2021/09/10 02:44:33;;;;;;;8.90;8.00;;;19.90;99.90;;;;;;5073508;28;20450;-70
2021/09/10 02:46:59;;;;;;;8.40;7.30;;;20.00;99.90;;;;;;5073507;28;20535;-70
2021/09/10 02:49:26;;;;;;;8.53;7.40;;;20.00;99.90;;;;;;5073588;28;20533;-70
2021/09/10 02:51:55;;;;;;;8.77;7.87;;;20.00;99.90;;;;;;5073217;28;20546;-70
2021/09/10 02:54:22;;;;;;;14.50;8.40;;;19.90;99.90;;;;;;5073464;28;20533;-70
2021/09/10 02:56:49;;;;;;;9.00;7.63;;;19.80;99.90;;;;;;5073265;28;20505;-70
2021/09/10 02:59:15;;;;;;;10.60;8.20;;;19.80;99.90;;;;;;5073544;28;20449;-70
2021/09/10 03:01:44;;;;;;;8.90;7.57;;;19.80;99.90;;;;;;5073462;28;20530;-70
2021/09/10 03:04:11;;;;;;;7.60;6.80;;;19.80;99.90;;;;;;5073372;28;20930;-70
2021/09/10 03:06:38;;;;;;;8.93;7.43;;;19.90;99.90;;;;;;5073209;28;20464;-70
2021/09/10 03:09:07;;;;;;;8.63;7.37;;;20.00;99.90;;;;;;5073222;28;20530;-70
2021/09/10 03:11:34;;;;;;;9.60;7.57;;;19.80;99.90;;;;;;5073397;28;20438;-70
2021/09/10 03:14:01;;;;;;;8.70;7.80;;;19.70;99.90;;;;;;5073391;28;20529;-70
2021/09/10 03:16:28;;;;;;;9.10;7.70;;;19.50;99.90;;;;;;5072829;28;20492;-70
2021/09/10 03:18:55;;;;;;;9.27;8.10;;;19.50;99.90;;;;;;5077066;28;20445;-70
2021/09/10 03:21:22;;;;;;;10.43;8.40;;;19.30;99.90;;;;;;5077383;28;20211;-70
2021/09/10 03:23:48;;;;;;;9.60;8.00;;;19.20;99.90;;;;;;5077141;28;20437;-70
2021/09/10 03:26:17;;;;;;;8.43;7.50;;;19.10;99.90;;;;;;5077055;28;20257;-70
2021/09/10 03:28:43;;;;;;;9.50;7.60;;;19.20;99.90;;;;;;5077090;28;20200;-70
2021/09/10 03:31:10;;;;;;;9.20;7.83;;;19.40;99.90;;;;;;5077148;28;20438;-71
2021/09/10 03:33:37;;;;;;;8.77;7.87;;;19.40;99.90;;;;;;5076859;28;20528;-70
2021/09/10 03:36:04;;;;;;;8.97;8.00;;;19.40;99.90;;;;;;5076528;28;20965;-70
2021/09/10 03:38:31;;;;;;;9.27;7.33;;;19.40;99.90;;;;;;5076845;28;20445;-70
2021/09/10 03:40:58;;;;;;;9.30;8.10;;;19.30;99.90;;;;;;5076958;28;20528;-70
2021/09/10 03:43:26;;;;;;;10.18;8.52;;;19.20;99.90;;;;;;5076754;28;20553;-70
2021/09/10 03:45:53;;;;;;;9.48;8.25;;;19.10;99.90;;;;;;5076478;28;20223;-70
2021/09/10 03:48:20;;;;;;;8.68;7.63;;;19.00;99.90;;;;;;5076853;28;20597;-70
2021/09/10 03:50:46;;;;;;;9.73;8.50;;;19.00;99.90;;;;;;5076800;28;20204;-70
2021/09/10 03:53:13;;;;;;;8.63;7.63;;;19.00;99.90;;;;;;5076752;28;20472;-70
2021/09/10 03:55:40;;;;;;;10.10;8.33;;;19.00;99.90;;;;;;5076356;28;20311;-70
2021/09/10 03:58:07;;;;;;;9.27;8.07;;;19.10;99.90;;;;;;5076600;28;20877;-70
2021/09/10 04:00:35;;;;;;;9.73;8.47;;;19.30;99.90;;;;;;5076528;28;20540;-70
2021/09/10 04:03:04;;;;;;;10.00;7.70;;;19.20;99.90;;;;;;5076567;28;20485;-70
2021/09/10 04:05:31;;;;;;;8.60;7.70;;;19.20;99.90;;;;;;5076164;28;20473;-70
2021/09/10 04:07:58;;;;;;;11.70;9.00;;;19.30;99.90;;;;;;5076470;28;20199;-70
2021/09/10 04:10:25;;;;;;;8.40;7.28;;;19.30;99.90;;;;;;5076427;28;20804;-70
2021/09/10 04:12:53;;;;;;;8.90;7.80;;;19.20;99.90;;;;;;5076338;28;20205;-70
2021/09/10 04:15:20;;;;;;;10.13;7.80;;;19.30;99.90;;;;;;5076038;28;20472;-70
2021/09/10 04:17:48;;;;;;;9.17;7.73;;;19.30;99.90;;;;;;5076232;28;20563;-70
2021/09/10 04:20:15;;;;;;;7.90;6.70;;;19.30;99.90;;;;;;5076103;28;20453;-70
2021/09/10 04:22:42;;;;;;;8.93;8.03;;;19.40;99.90;;;;;;5076196;28;20434;-70
2021/09/10 04:25:10;;;;;;;9.43;8.10;;;19.40;99.90;;;;;;5075772;28;20469;-70
2021/09/10 04:27:36;;;;;;;9.90;8.30;;;19.30;99.90;;;;;;5076024;28;20445;-70
2021/09/10 04:30:04;;;;;;;9.30;7.70;;;19.20;99.90;;;;;;5075167;28;20291;-70
2021/09/10 04:32:31;;;;;;;8.93;7.90;;;19.10;99.90;;;;;;5076011;28;20536;-70
2021/09/10 04:35:00;;;;;;;11.03;8.83;;;19.00;99.90;;;;;;5075608;28;20230;-70
2021/09/10 04:37:26;;;;;;;9.40;8.13;;;19.20;99.90;;;;;;5076143;28;20487;-70
2021/09/10 04:39:53;;;;;;;9.53;8.47;;;19.20;99.90;;;;;;5075893;28;20529;-70
2021/09/10 04:42:20;;;;;;;10.17;8.73;;;19.30;99.90;;;;;;5075825;28;20939;-70
2021/09/10 04:44:47;;;;;;;10.27;8.27;;;19.30;99.90;;;;;;5075293;28;20450;-70
2021/09/10 04:47:14;;;;;;;9.70;8.50;;;19.30;99.90;;;;;;5075791;28;20521;-70
2021/09/10 04:49:41;;;;;;;10.37;8.90;;;19.30;99.90;;;;;;5075718;28;20445;-70
2021/09/10 04:52:09;;;;;;;9.23;7.95;;;19.30;99.90;;;;;;5075571;28;20546;-70
2021/09/10 04:54:36;;;;;;;10.73;7.30;;;19.30;99.90;;;;;;5075478;28;20210;-70
2021/09/10 04:57:03;;;;;;;9.93;8.17;;;19.40;99.90;;;;;;5075363;28;20477;-70
2021/09/10 04:59:31;;;;;;;11.70;8.80;;;19.40;99.90;;;;;;5075866;28;20447;-70
2021/09/10 05:01:58;;;;;;;10.03;8.27;;;19.30;99.90;;;;;;5075475;28;20452;-70
2021/09/10 05:04:25;;;;;;;9.20;8.10;;;19.20;99.90;;;;;;5075249;28;20450;-70
2021/09/10 05:06:51;;;;;;;8.75;7.85;;;19.10;99.90;;;;;;5074981;28;20588;-70
2021/09/10 05:09:20;;;;;;;9.43;7.65;;;18.90;99.90;;;;;;5075236;28;20210;-70
2021/09/10 05:11:47;;;;;;;9.05;7.30;;;18.80;99.90;;;;;;5075329;28;20210;-70
2021/09/10 05:14:14;;;;;;;8.85;7.60;;;18.90;99.90;;;;;;5075246;28;20209;-70
2021/09/10 05:16:41;;;;;;;8.60;7.53;;;19.00;99.90;;;;;;5074892;28;20228;-70
2021/09/10 05:19:09;;;;;;;12.70;7.85;;;19.00;99.90;;;;;;5075151;28;20475;-70
2021/09/10 05:21:36;;;;;;;8.83;7.70;;;19.00;99.90;;;;;;5075052;28;20294;-70
2021/09/10 05:24:03;;;;;;;9.88;8.15;;;19.10;99.90;;;;;;5074995;28;20460;-70
2021/09/10 05:26:32;;;;;;;11.30;8.80;;;19.20;99.90;;;;;;5074919;28;20314;-69
2021/09/10 05:28:59;;;;;;;10.57;8.97;;;19.20;99.90;;;;;;5074559;28;20441;-69
2021/09/10 05:31:26;;;;;;;11.40;8.90;;;19.30;99.90;;;;;;5074889;28;20438;-69
2021/09/10 05:33:53;;;;;;;10.90;8.87;;;19.40;99.90;;;;;;5074811;28;20945;-69
2021/09/10 05:36:21;;;;;;;12.20;9.07;;;19.30;99.90;;;;;;5074178;28;20469;-69
2021/09/10 05:38:48;;;;;;;11.25;9.18;;;19.10;99.90;;;;;;5074602;28;20507;-69
2021/09/10 05:41:15;;;;;;;8.70;7.53;;;19.00;99.90;;;;;;5074588;28;20199;-69
2021/09/10 05:43:43;;;;;;;11.75;8.98;;;18.90;99.90;;;;;;5074393;28;20279;-69
2021/09/10 05:46:11;;;;;;;11.20;8.63;;;18.70;99.90;;;;;;5074166;28;20222;-69
2021/09/10 05:48:38;;;;;;;10.77;9.18;;;18.70;99.90;;;;;;5074486;28;20205;-69
2021/09/10 05:51:06;;;;;;;11.55;8.85;;;18.80;99.90;;;;;;5074418;28;20261;-69
2021/09/10 05:53:33;;;;;;;8.45;7.57;;;18.70;99.90;;;;;;5074224;28;20207;-69
2021/09/10 05:56:00;;;;;;;9.93;7.90;;;18.60;99.90;;;;;;5074181;28;20288;-69
2021/09/10 05:58:26;;;;;;;10.70;8.43;;;18.50;99.90;;;;;;5074279;28;20233;-70
2021/09/10 06:00:55;;;;;;;10.05;8.75;;;18.40;99.90;;;;;;5074310;28;20210;-69
2021/09/10 06:03:21;;;;;;;11.13;8.80;;;18.30;99.90;;;;;;5074195;28;20288;-70
2021/09/10 06:05:48;;;;;;;11.57;9.00;;;18.50;99.90;;;;;;5073767;28;20254;-69
2021/09/10 06:08:15;;;;;;;9.93;7.45;;;18.60;99.90;;;;;;5074171;28;20201;-70
2021/09/10 06:10:44;;;;;;;9.60;8.50;;;18.80;99.90;;;;;;5073966;28;20239;-69
2021/09/10 06:13:11;;;;;;;9.73;8.50;;;18.90;99.90;;;;;;5074087;28;20235;-69
2021/09/10 06:15:38;;;;;;;12.85;9.05;;;18.90;99.90;;;;;;5073636;28;20493;-69
2021/09/10 06:18:07;;;;;;;9.25;7.75;;;19.00;99.90;;;;;;5073892;28;20218;-70
2021/09/10 06:20:34;;;;;;;10.60;8.80;;;19.00;99.90;;;;;;5073979;28;20204;-69
2021/09/10 06:23:01;;;;;;;11.07;9.33;;;19.10;99.90;;;;;;5073850;28;20482;-69
2021/09/10 06:25:28;;;;;;;10.73;9.02;;;19.10;99.90;;;;;;5073616;28;20465;-69
2021/09/10 06:27:55;;;;;;;12.07;9.87;;;19.10;99.90;;;;;;5073882;28;20313;-69
2021/09/10 06:30:22;;;;;;;10.53;8.20;;;19.20;99.90;;;;;;5073794;28;20446;-69
2021/09/10 06:32:49;;;;;;;10.20;8.60;;;19.20;99.90;;;;;;5073912;28;20863;-70
2021/09/10 06:35:18;;;;;;;11.38;8.82;;;19.20;99.90;;;;;;5073597;28;20235;-69
2021/09/10 06:37:45;;;;;;;10.27;8.70;;;19.20;99.90;;;;;;5073427;28;20319;-69
2021/09/10 06:40:14;;;;;;;12.60;9.77;;;19.20;99.90;;;;;;5073489;28;20457;-69
2021/09/10 06:42:42;;;;;;;12.50;9.13;;;19.20;99.90;;;;;;5073694;28;20449;-69
2021/09/10 06:45:09;;;;;;;11.83;9.20;;;19.10;99.90;;;;;;5073319;28;20484;-69
2021/09/10 06:47:36;;;;;;;10.75;8.80;;;19.00;99.90;;;;;;5073699;28;20798;-69
2021/09/10 06:50:07;;;;;;;10.40;8.88;;;18.90;99.90;;;;;;5073673;28;20289;-70
2021/09/10 06:52:36;;;;;;;15.83;9.47;;;18.90;99.90;;;;;;5073227;28;20628;-70
2021/09/10 06:55:03;;;;;;;11.13;9.25;;;18.90;99.90;;;;;;5073187;28;20476;-69
2021/09/10 06:57:30;;;;;;;11.65;9.70;;;18.90;99.90;;;;;;5073422;28;20226;-69
2021/09/10 06:59:57;;;;;;;12.30;10.20;;;18.90;99.90;;;;;;5073235;28;20222;-70
2021/09/10 07:02:24;;;;;;;12.23;9.80;;;18.90;99.90;;;;;;5073536;28;20480;-70
2021/09/10 07:04:51;;;;;;;11.90;9.30;;;18.90;99.90;;;;;;5073217;28;20634;-69
2021/09/10 07:07:18;;;;;;;11.30;8.27;;;19.00;99.90;;;;;;5073447;28;20434;-69
2021/09/10 07:09:46;;;;;;;10.40;8.73;;;19.20;99.90;;;;;;5073355;28;20480;-69
2021/09/10 07:12:13;;;;;;;12.40;9.67;;;19.30;99.90;;;;;;5073357;28;20531;-69
2021/09/10 07:14:40;;;;;;;10.57;9.13;;;19.50;99.90;;;;;;5073319;28;20546;-69
2021/09/10 07:17:06;;;;;;;11.50;8.67;;;19.50;99.90;;;;;;5072933;28;20533;-69
2021/09/10 07:19:33;;;;;;;13.33;9.90;;;19.60;99.90;;;;;;5073212;28;20530;-69
2021/09/10 07:22:00;;;;;;;10.43;8.50;;;19.70;99.90;;;;;;5073352;28;20450;-69
2021/09/10 07:24:27;;;;;;;10.63;9.50;;;19.70;99.90;;;;;;5073340;28;20529;-70
2021/09/10 07:26:55;;;;;;;12.40;9.20;;;19.80;99.90;;;;;;5072785;28;20579;-70
2021/09/10 07:29:23;;;;;;;11.80;10.20;;;19.90;99.90;;;;;;5073267;28;20526;-69
2021/09/10 07:31:50;;;;;;;11.57;9.50;;;19.90;99.90;;;;;;5073229;28;20480;-70
2021/09/10 07:34:17;;;;;;;11.90;9.83;;;19.90;99.90;;;;;;5073204;28;20469;-69
2021/09/10 07:36:48;;;;;;;11.37;8.80;;;20.10;99.90;;;;;;5073002;28;20821;-70
2021/09/10 07:39:16;;;;;;;8.90;7.83;;;20.20;99.90;;;;;;5073022;28;20476;-70
2021/09/10 07:41:43;;;;;;;10.60;8.70;;;20.40;99.90;;;;;;5073161;28;20442;-70
2021/09/10 07:44:13;;;;;;;11.00;8.60;;;20.40;99.90;;;;;;5072961;28;20854;-70
2021/09/10 07:46:40;;;;;;;8.50;7.70;;;20.40;99.90;;;;;;5072866;28;20468;-69
2021/09/10 07:49:08;;;;;;;9.73;8.73;;;20.60;99.90;;;;;;5072987;28;20444;-70
2021/09/10 07:51:35;;;;;;;10.60;9.47;;;20.70;99.90;;;;;;5072983;28;20867;-70
2021/09/10 07:54:02;;;;;;;10.73;8.97;;;20.90;99.90;;;;;;5072999;28;20994;-70
2021/09/10 07:56:29;;;;;;;10.23;8.60;;;20.90;99.90;;;;;;5072710;28;20550;-70
2021/09/10 07:58:56;;;;;;;10.87;8.80;;;21.00;99.90;;;;;;5072879;28;20574;-70
2021/09/10 08:01:24;;;;;;;9.90;8.30;;;21.10;99.90;;;;;;5072939;28;20455;-69
2021/09/10 08:03:51;;;;;;;8.90;8.00;;;21.10;99.90;;;;;;5073262;28;20447;-69
2021/09/10 08:06:18;;;;;;;8.50;7.40;;;21.20;99.90;;;;;;5076003;28;20552;-69
2021/09/10 08:08:45;;;;;;;12.13;9.83;;;21.30;99.90;;;;;;5076244;28;20532;-70
2021/09/10 08:11:12;;;;;;;10.33;8.47;;;21.60;99.90;;;;;;5076386;28;20454;-70
2021/09/10 08:13:39;;;;;;;8.57;7.67;;;21.70;99.90;;;;;;5076409;28;20450;-70
2021/09/10 08:16:07;;;;;;;9.40;7.80;;;21.80;99.90;;;;;;5076316;28;20552;-70
2021/09/10 08:18:36;;;;;;;10.40;7.27;;;21.90;99.90;;;;;;5076167;28;20468;-70
2021/09/10 08:21:03;;;;;;;8.90;8.00;;;21.90;99.90;;;;;;5076226;28;20532;-70
2021/09/10 08:23:29;;;;;;;8.23;6.50;;;22.10;99.90;;;;;;5076294;28;20782;-70
2021/09/10 08:25:56;;;;;;;7.97;7.17;;;22.20;99.90;;;;;;5076001;28;20867;-70
2021/09/10 08:28:23;;;;;;;6.90;6.30;;;22.30;99.90;;;;;;5076222;28;20444;-70
2021/09/10 08:30:50;;;;;;;7.43;6.47;;;22.40;99.90;;;;;;5076115;28;20528;-70
2021/09/10 08:33:18;;;;;;;7.90;5.80;;;22.60;99.90;;;;;;5075974;28;20441;-70
2021/09/10 08:35:46;;;;;;;7.30;6.33;;;22.80;99.90;;;;;;5075788;28;20479;-70
2021/09/10 08:38:13;;;;;;;6.47;5.87;;;22.90;99.90;;;;;;5075910;28;20477;-70
2021/09/10 08:40:42;;;;;;;7.10;6.03;;;23.00;99.90;;;;;;5075796;28;21004;-70
2021/09/10 08:43:09;;;;;;;8.27;6.67;;;23.00;99.90;;;;;;5075604;28;20458;-70
2021/09/10 08:45:36;;;;;;;7.30;5.97;;;23.10;99.90;;;;;;5075693;28;20500;-70
2021/09/10 08:48:02;;;;;;;6.73;6.13;;;23.20;99.90;;;;;;5075740;28;20440;-70
2021/09/10 08:50:31;;;;;;;6.23;5.70;;;23.30;99.90;;;;;;5075787;28;20528;-70
2021/09/10 08:52:59;;;;;;;6.37;5.77;;;23.40;99.90;;;;;;5075709;28;20444;-70
2021/09/10 08:55:26;;;;;;;6.20;5.60;;;23.40;99.90;;;;;;5075293;28;20496;-69
2021/09/10 08:57:54;;;;;;;6.37;5.50;;;23.40;98.80;;;;;;5075505;28;20475;-70
2021/09/10 09:00:29;;;;;;;6.97;6.30;;;23.40;99.30;;;;;;5075548;28;20452;-70
2021/09/10 09:03:01;;;;;;;6.63;5.93;;;23.40;98.80;;;;;;5075306;28;20447;-70
2021/09/10 09:05:28;;;;;;;6.07;5.47;;;23.40;99.30;;;;;;5075649;28;20553;-70
2021/09/10 09:08:07;;;;;;;6.97;6.27;;;23.40;99.00;;;;;;5075268;28;20487;-70
2021/09/10 09:11:06;;;;;;;7.13;6.43;;;23.30;99.10;;;;;;5075391;28;20445;-70
2021/09/10 09:13:34;;;;;;;6.63;6.00;;;23.30;99.90;;;;;;5075081;28;20528;-70
2021/09/10 09:16:24;;;;;;;7.37;6.67;;;23.20;99.40;;;;;;5074663;28;20453;-70
2021/09/10 09:18:53;;;;;;;6.20;5.60;;;23.30;99.90;;;;;;5071025;28;20478;-70
2021/09/10 09:21:27;;;;;;;7.17;6.40;;;23.20;99.90;;;;;;5075097;28;20468;-70
2021/09/10 09:23:57;;;;;;;8.27;7.47;;;23.20;99.90;;;;;;5074860;28;20440;-70
2021/09/10 09:26:27;;;;;;;6.83;6.13;;;23.20;99.90;;;;;;5074639;28;20544;-70
2021/09/10 09:29:08;;;;;;;7.87;6.97;;;23.20;99.90;;;;;;5075005;28;20800;-70
2021/09/10 09:31:35;;;;;;;8.57;6.90;;;23.30;99.90;;;;;;5074833;28;20445;-70
2021/09/10 09:34:04;;;;;;;7.60;6.80;;;23.40;99.90;;;;;;5074898;28;20538;-70
2021/09/10 09:36:30;;;;;;;8.50;7.33;;;23.60;99.90;;;;;;5074600;28;20464;-70
2021/09/10 09:38:59;;;;;;;8.60;6.97;;;23.80;99.90;;;;;;5074696;28;20922;-70
2021/09/10 09:41:26;;;;;;;7.13;6.50;;;24.00;99.70;;;;;;5074576;28;20448;-70
2021/09/10 09:44:08;;;;;;;7.13;6.30;;;24.10;99.60;;;;;;5074374;28;20965;-70
2021/09/10 09:46:35;;;;;;;8.23;7.43;;;24.30;99.30;;;;;;5074455;28;20884;-70
2021/09/10 09:49:08;;;;;;;11.87;6.60;;;24.30;97.40;;;;;;5074583;28;20479;-70
2021/09/10 09:51:36;;;;;;;7.83;6.77;;;24.40;97.40;;;;;;5074818;28;20531;-70
2021/09/10 09:54:04;;;;;;;7.67;6.97;;;24.60;96.90;;;;;;5074498;28;20810;-70
2021/09/10 09:56:32;;;;;;;7.60;6.87;;;24.80;96.10;;;;;;5073887;28;20563;-70
2021/09/10 09:58:59;;;;;;;7.03;6.43;;;24.80;96.00;;;;;;5074038;28;20499;-70
2021/09/10 10:01:26;;;;;;;7.20;6.50;;;24.80;96.20;;;;;;5074344;28;20536;-70
2021/09/10 10:03:53;;;;;;;7.77;7.07;;;24.80;96.50;;;;;;5074094;28;20441;-70
2021/09/10 10:06:24;;;;;;;8.27;7.47;;;24.80;96.70;;;;;;5074005;28;20494;-70
2021/09/10 10:08:58;;;;;;;7.67;6.97;;;24.90;96.70;;;;;;5074164;28;20443;-70
2021/09/10 10:11:30;;;;;;;7.67;6.50;;;25.10;96.70;;;;;;5074111;28;20444;-70
2021/09/10 10:13:59;;;;;;;8.60;7.70;;;25.20;95.90;;;;;;5074067;28;20448;-70
2021/09/10 10:16:36;;;;;;;9.43;8.20;;;25.20;95.10;;;;;;5073899;28;20814;-70
2021/09/10 10:19:04;;;;;;;9.57;7.27;;;25.30;95.00;;;;;;5073998;28;20804;-70
2021/09/10 10:21:52;;;;;;;7.40;6.60;;;25.90;95.60;;;;;;5073962;28;20532;-70
2021/09/10 10:24:39;;;;;;;7.50;6.70;;;27.10;92.40;;;;;;5073772;28;20922;-70
2021/09/10 10:27:28;;;;;;;7.20;6.50;;;28.10;91.40;;;;;;5073129;28;20448;-70
2021/09/10 10:29:55;;;;;;;6.33;5.73;;;28.90;87.60;;;;;;5073942;28;20492;-71
2021/09/10 10:32:31;;;;;;;7.17;6.50;;;29.30;84.60;;;;;;5073802;28;20454;-70
2021/09/10 10:35:17;;;;;;;7.03;6.40;;;29.30;82.90;;;;;;5073576;28;20848;-70
2021/09/10 10:37:45;;;;;;;9.70;8.70;;;29.10;82.70;;;;;;5073798;28;20528;-70
2021/09/10 10:40:26;;;;;;;7.47;6.77;;;29.40;83.40;;;;;;5073724;28;20531;-70
2021/09/10 10:42:55;;;;;;;7.43;6.73;;;29.60;81.20;;;;;;5073654;28;20579;-70
2021/09/10 10:45:58;;;;;;;7.07;6.47;;;29.60;77.30;;;;;;5073439;28;20466;-70
2021/09/10 10:48:44;;;;;;;7.20;6.50;;;28.70;82.00;;;;;;5073723;28;20467;-70
2021/09/10 10:51:39;;;;;;;7.30;6.60;;;28.20;82.20;;;;;;5073609;28;20456;-70
2021/09/10 10:54:10;;;;;;;7.00;6.40;;;27.90;82.30;;;;;;5073503;28;20451;-70
2021/09/10 10:56:48;;;;;;;7.37;6.67;;;27.90;84.00;;;;;;5073147;28;20458;-70
2021/09/10 10:59:33;;;;;;;7.07;5.90;;;28.20;80.40;;;;;;5073461;28;20477;-70
2021/09/10 11:02:36;;;;;;;6.70;6.10;;;28.70;79.20;;;;;;5073538;28;20472;-70
2021/09/10 11:05:20;;;;;;;6.80;6.20;;;29.50;79.70;;;;;;5073263;28;20479;-70
2021/09/10 11:07:48;;;;;;;6.53;5.93;;;30.00;76.20;;;;;;5073437;28;20988;-70
2021/09/10 11:10:16;;;;;;;6.53;5.93;;;30.30;78.80;;;;;;5073477;28;20437;-70
2021/09/10 11:12:44;;;;;;;6.30;5.80;;;30.80;70.90;;;;;;5073425;28;20445;-70
2021/09/10 11:15:24;;;;;;;6.70;6.10;;;31.10;70.70;;;;;;5073176;28;20460;-70
2021/09/10 11:17:56;;;;;;;6.77;6.17;;;30.30;69.00;;;;;;5073092;28;21002;-70
2021/09/10 11:20:44;;;;;;;6.70;6.20;;;29.50;70.20;;;;;;5073071;28;20567;-70
2021/09/10 11:23:12;;;;;;;6.43;5.83;;;28.60;71.90;;;;;;5073192;28;20444;-70
2021/09/10 11:25:44;;;;;;;6.50;5.90;;;28.00;76.10;;;;;;5073007;28;20469;-70
2021/09/10 11:28:11;;;;;;;7.60;6.87;;;27.50;75.60;;;;;;5073282;28;20464;-70
2021/09/10 11:30:40;;;;;;;6.60;5.83;;;27.50;77.60;;;;;;5073205;28;20435;-70
2021/09/10 11:33:07;;;;;;;6.97;6.27;;;27.60;78.10;;;;;;5073133;28;20468;-70
2021/09/10 11:35:36;;;;;;;7.10;6.40;;;27.60;77.80;;;;;;5072789;28;20544;-70
2021/09/10 11:38:05;;;;;;;7.03;6.47;;;27.50;78.40;;;;;;5073821;28;20448;-70
2021/09/10 11:40:37;;;;;;;7.20;6.50;;;27.40;77.40;;;;;;5076916;28;20571;-70
2021/09/10 11:43:06;;;;;;;7.23;6.37;;;27.50;79.30;;;;;;5076779;28;20437;-70
2021/09/10 11:45:35;;;;;;;6.63;6.03;;;27.50;80.40;;;;;;5076763;28;20548;-70
2021/09/10 11:48:05;;;;;;;6.90;6.20;;;27.40;79.00;;;;;;5076930;28;20446;-70
2021/09/10 11:50:54;;;;;;;6.87;6.17;;;27.30;80.30;;;;;;5077127;28;20925;-70
2021/09/10 11:53:24;;;;;;;7.40;6.70;;;27.10;80.80;;;;;;5076755;28;20447;-70
2021/09/10 11:56:11;;;;;;;7.17;6.53;;;26.90;81.70;;;;;;5076415;28;20542;-70
2021/09/10 11:58:41;;;;;;;7.73;6.87;;;26.60;83.20;;;;;;5076282;28;20935;-70
2021/09/10 12:01:23;;;;;;;7.33;6.63;;;26.50;83.40;;;;;;5076476;28;20814;-70
2021/09/10 12:03:54;;;;;;;7.17;6.50;;;26.30;85.30;;;;;;5076535;28;20441;-70
2021/09/10 12:06:23;;;;;;;7.40;6.27;;;26.30;85.10;;;;;;5076326;28;20514;-70
2021/09/10 12:09:12;;;;;;;7.63;6.90;;;26.30;85.30;;;;;;5076473;28;20441;-70
2021/09/10 12:12:03;;;;;;;8.57;7.77;;;26.30;87.50;;;;;;5076608;28;20447;-70
2021/09/10 12:14:32;;;;;;;8.10;7.30;;;26.20;86.30;;;;;;5076374;28;20445;-70
2021/09/10 12:17:20;;;;;;;12.23;10.10;;;26.00;88.10;;;;;;5075956;28;20472;-70
2021/09/10 12:20:11;;;;;;;11.30;10.10;;;25.90;88.60;;;;;;5076323;28;20487;-69
2021/09/10 12:22:41;;;;;;;9.50;8.57;;;25.70;88.60;;;;;;5076045;28;20451;-70
2021/09/10 12:25:31;;;;;;;7.83;7.13;;;25.70;90.00;;;;;;5076025;28;20881;-70
2021/09/10 12:28:13;;;;;;;8.37;7.60;;;25.70;89.30;;;;;;5076255;28;20813;-70
2021/09/10 12:30:42;;;;;;;7.70;6.90;;;25.60;90.90;;;;;;5076195;28;20441;-70
2021/09/10 12:33:10;;;;;;;7.03;6.43;;;25.50;90.20;;;;;;5076112;28;20477;-70
2021/09/10 12:35:39;;;;;;;7.70;7.00;;;25.70;90.60;;;;;;5075817;28;20465;-70
2021/09/10 12:38:08;;;;;;;8.67;6.83;;;25.90;90.30;;;;;;5075843;28;20444;-69
2021/09/10 12:40:37;;;;;;;8.57;7.73;;;25.90;90.10;;;;;;5075578;28;20481;-70
2021/09/10 12:43:05;;;;;;;7.07;6.43;;;25.90;91.20;;;;;;5075813;28;20441;-70
2021/09/10 12:45:32;;;;;;;7.37;6.67;;;25.80;90.20;;;;;;5075709;28;20479;-70
2021/09/10 12:48:00;;;;;;;7.90;7.20;;;25.80;90.20;;;;;;5075824;28;20540;-70
2021/09/10 12:50:28;;;;;;;8.17;7.37;;;25.80;91.00;;;;;;5074846;28;20915;-70
2021/09/10 12:52:57;;;;;;;7.93;7.17;;;25.90;90.90;;;;;;5075720;28;20481;-70
2021/09/10 12:55:24;;;;;;;10.30;7.93;;;26.00;91.60;;;;;;5075284;28;20556;-70